createdAt,value
2022-08-07T00:02:35.297Z,100726.78
2022-08-07T00:04:04.308Z,100723.16
2022-08-07T00:06:33.882Z,100739.53
2022-08-07T00:09:17.018Z,100737.94
2022-08-07T00:11:56.152Z,100733.53
2022-08-07T00:14:30.034Z,100718.97
2022-08-07T00:16:59.375Z,100736.56
2022-08-07T00:20:00.341Z,100731.69
2022-08-07T00:22:24.536Z,100728.97
2022-08-07T00:25:07.317Z,100735.56
2022-08-07T00:27:52.395Z,100732.03
2022-08-07T00:30:27.059Z,100725.25
2022-08-07T00:32:59.570Z,100729.53
2022-08-07T00:35:30.539Z,100743.16
2022-08-07T00:37:58.699Z,100736.47
2022-08-07T00:40:39.916Z,100731.38
2022-08-07T00:43:10.561Z,100720.16
2022-08-07T00:45:56.637Z,100730.25
2022-08-07T00:48:25.046Z,100729.63
2022-08-07T00:50:58.687Z,100733.00
2022-08-07T00:53:27.105Z,100731.66
2022-08-07T00:56:07.404Z,100734.41
2022-08-07T00:58:47.343Z,100730.00
2022-08-07T01:01:17.373Z,100733.62
2022-08-07T01:03:57.236Z,100732.59
2022-08-07T01:06:28.071Z,100731.25
2022-08-07T01:08:58.421Z,100726.88
2022-08-07T01:12:23.538Z,100716.19
2022-08-07T01:14:28.770Z,100723.19
2022-08-07T01:16:57.169Z,100722.97
2022-08-07T01:19:24.986Z,100713.28
2022-08-07T01:21:53.519Z,100710.59
2022-08-07T01:24:22.663Z,100719.94
2022-08-07T01:26:52.242Z,100726.56
2022-08-07T01:29:21.952Z,100731.53
2022-08-07T01:31:50.165Z,100729.56
2022-08-07T01:34:20.298Z,100730.75
2022-08-07T01:36:58.255Z,100731.13
2022-08-07T01:39:40.374Z,100734.41
2022-08-07T01:42:38.373Z,100725.37
2022-08-07T01:45:03.258Z,100731.03
2022-08-07T01:48:20.999Z,100730.91
2022-08-07T01:50:22.676Z,100726.22
2022-08-07T01:52:58.382Z,100719.78
2022-08-07T01:55:30.709Z,100711.66
2022-08-07T01:58:27.181Z,100702.84
2022-08-07T02:01:10.027Z,100708.63
2022-08-07T02:03:51.458Z,100708.28
2022-08-07T02:06:31.905Z,100705.72
2022-08-07T02:09:03.732Z,100704.56
2022-08-07T02:12:02.786Z,100699.06
2022-08-07T02:14:40.387Z,100697.56
2022-08-07T02:17:09.573Z,100701.78
2022-08-07T02:20:04.819Z,100703.31
2022-08-07T02:22:27.869Z,100714.59
2022-08-07T02:24:56.359Z,100717.63
2022-08-07T02:27:25.111Z,100712.88
2022-08-07T02:29:54.760Z,100716.78
2022-08-07T02:32:23.472Z,100725.09
2022-08-07T02:34:54.916Z,100722.56
2022-08-07T02:37:25.563Z,100726.28
2022-08-07T02:40:12.059Z,100720.88
2022-08-07T02:42:41.825Z,100711.87
2022-08-07T02:45:57.720Z,100721.25
2022-08-07T02:47:59.324Z,100722.78
2022-08-07T02:50:31.751Z,100734.00
2022-08-07T02:53:06.407Z,100725.81
2022-08-07T02:56:03.354Z,100732.25
2022-08-07T02:58:23.511Z,100734.41
2022-08-07T03:00:56.578Z,100732.19
2022-08-07T03:03:24.366Z,100737.16
2022-08-07T03:05:57.358Z,100731.69
2022-08-07T03:08:26.890Z,100729.00
2022-08-07T03:10:56.994Z,100729.84
2022-08-07T03:13:24.238Z,100724.09
2022-08-07T03:15:56.406Z,100740.66
2022-08-07T03:18:36.173Z,100732.66
2022-08-07T03:21:08.734Z,100736.56
2022-08-07T03:24:18.002Z,100732.59
2022-08-07T03:26:29.063Z,100737.34
2022-08-07T03:28:56.238Z,100741.81
2022-08-07T03:31:43.416Z,100748.81
2022-08-07T03:34:18.625Z,100748.44
2022-08-07T03:36:51.485Z,100749.16
2022-08-07T03:39:46.485Z,100749.16
2022-08-07T03:42:07.690Z,100749.34
2022-08-07T03:44:37.025Z,100749.88
2022-08-07T03:47:11.042Z,100747.75
2022-08-07T03:49:38.953Z,100754.09
2022-08-07T03:52:22.810Z,100753.78
2022-08-07T03:54:57.427Z,100757.16
2022-08-07T03:58:57.172Z,100765.75
2022-08-07T04:00:14.966Z,100766.59
2022-08-07T04:02:47.487Z,100774.56
2022-08-07T04:05:20.294Z,100773.28
2022-08-07T04:07:56.068Z,100762.37
2022-08-07T04:10:23.132Z,100775.81
2022-08-07T04:12:51.280Z,100776.78
2022-08-07T04:15:19.080Z,100785.56
2022-08-07T04:18:31.433Z,100779.78
2022-08-07T04:20:35.158Z,100778.41
2022-08-07T04:23:06.595Z,100781.72
2022-08-07T04:25:39.349Z,100776.66
2022-08-07T04:28:10.321Z,100779.87
2022-08-07T04:30:55.562Z,100775.81
2022-08-07T04:33:24.794Z,100783.22
2022-08-07T04:35:53.976Z,100788.16
2022-08-07T04:38:22.167Z,100788.53
2022-08-07T04:40:51.954Z,100800.63
2022-08-07T04:44:11.300Z,100787.50
2022-08-07T04:46:34.223Z,100798.81
2022-08-07T04:49:37.828Z,100789.34
2022-08-07T04:52:31.661Z,100793.34
2022-08-07T04:58:23.667Z,100792.34
2022-08-07T04:58:47.679Z,100794.22
2022-08-07T05:01:30.446Z,100794.53
2022-08-07T05:04:19.167Z,100793.41
2022-08-07T05:06:53.182Z,100788.28
2022-08-07T05:09:45.518Z,100786.81
2022-08-07T05:12:26.925Z,100785.44
2022-08-07T05:15:16.080Z,100784.88
2022-08-07T05:17:56.033Z,100786.25
2022-08-07T05:20:27.309Z,100777.78
2022-08-07T05:22:58.024Z,100785.63
2022-08-07T05:25:25.650Z,100766.34
2022-08-07T05:28:20.052Z,100779.22
2022-08-07T05:30:52.107Z,100773.78
2022-08-07T05:33:21.321Z,100778.31
2022-08-07T05:35:50.700Z,100772.34
2022-08-07T05:38:59.848Z,100770.50
2022-08-07T05:41:14.245Z,100783.97
2022-08-07T05:44:08.307Z,100765.81
2022-08-07T05:46:37.990Z,100763.41
2022-08-07T05:49:11.941Z,100762.22
2022-08-07T05:51:42.352Z,100762.84
2022-08-07T05:54:30.242Z,100769.34
2022-08-07T05:56:58.844Z,100753.91
2022-08-07T05:59:27.508Z,100768.00
2022-08-07T06:01:57.410Z,100760.47
2022-08-07T06:04:30.185Z,100744.94
2022-08-07T06:07:03.710Z,100769.37
2022-08-07T06:10:03.762Z,100775.22
2022-08-07T06:12:21.145Z,100769.75
2022-08-07T06:15:05.419Z,100761.94
2022-08-07T06:17:37.816Z,100755.84
2022-08-07T06:20:12.442Z,100753.72
2022-08-07T06:22:41.130Z,100754.19
2022-08-07T06:25:17.670Z,100737.19
2022-08-07T06:28:01.641Z,100756.75
2022-08-07T06:30:35.418Z,100775.34
2022-08-07T06:33:05.562Z,100773.81
2022-08-07T06:35:47.899Z,100778.94
2022-08-07T06:38:30.409Z,100777.81
2022-08-07T06:40:59.446Z,100776.00
2022-08-07T06:43:26.835Z,100775.84
2022-08-07T06:46:06.171Z,100777.56
2022-08-07T06:48:38.863Z,100793.34
2022-08-07T06:51:13.502Z,100770.28
2022-08-07T06:55:29.352Z,100773.13
2022-08-07T06:56:48.896Z,100769.81
2022-08-07T07:00:13.059Z,100788.56
2022-08-07T07:02:48.894Z,100779.13
2022-08-07T07:05:09.552Z,100765.66
2022-08-07T07:08:00.148Z,100755.03
2022-08-07T07:10:36.742Z,100757.03
2022-08-07T07:13:56.526Z,100762.03
2022-08-07T07:16:09.241Z,100755.53
2022-08-07T07:18:48.315Z,100763.06
2022-08-07T07:21:19.945Z,100754.94
2022-08-07T07:24:06.342Z,100730.44
2022-08-07T07:26:37.231Z,100736.28
2022-08-07T07:29:39.277Z,100739.44
2022-08-07T07:32:14.570Z,100727.16
2022-08-07T07:34:53.089Z,100754.81
2022-08-07T07:37:44.258Z,100749.81
2022-08-07T07:40:14.719Z,100741.56
2022-08-07T07:42:51.391Z,100741.47
2022-08-07T07:46:38.504Z,100729.53
2022-08-07T07:48:24.168Z,100720.91
2022-08-07T07:51:08.143Z,100731.28
2022-08-07T07:53:52.139Z,100728.91
2022-08-07T07:56:29.959Z,100714.03
2022-08-07T07:59:03.342Z,100741.34
2022-08-07T08:02:02.128Z,100752.81
2022-08-07T08:04:25.762Z,100729.22
2022-08-07T08:06:55.244Z,100716.75
2022-08-07T08:09:29.429Z,100711.59
2022-08-07T08:12:01.939Z,100718.63
2022-08-07T08:14:36.065Z,100715.22
2022-08-07T08:17:55.632Z,100714.66
2022-08-07T08:20:17.597Z,100715.84
2022-08-07T08:23:01.774Z,100727.38
2022-08-07T08:25:50.363Z,100718.53
2022-08-07T08:28:38.281Z,100724.97
2022-08-07T08:31:14.851Z,100740.62
2022-08-07T08:33:49.656Z,100700.59
2022-08-07T08:36:29.564Z,100727.53
2022-08-07T08:39:01.610Z,100702.03
2022-08-07T08:41:57.819Z,100719.34
2022-08-07T08:44:38.321Z,100727.56
2022-08-07T08:47:25.203Z,100747.72
2022-08-07T08:50:17.601Z,100730.38
2022-08-07T08:53:20.404Z,100712.72
2022-08-07T08:55:54.609Z,100712.75
2022-08-07T08:58:57.266Z,100734.28
2022-08-07T09:01:49.178Z,100721.47
2022-08-07T09:04:36.636Z,100703.16
2022-08-07T09:07:28.920Z,100725.94
2022-08-07T09:10:11.537Z,100724.75
2022-08-07T09:12:59.631Z,100732.25
2022-08-07T09:16:24.319Z,100718.22
2022-08-07T09:18:53.114Z,100723.75
2022-08-07T09:22:09.875Z,100705.37
2022-08-07T09:25:07.158Z,100696.38
2022-08-07T09:27:59.753Z,100704.91
2022-08-07T09:30:46.425Z,100697.47
2022-08-07T09:33:52.627Z,100694.53
2022-08-07T09:36:31.179Z,100700.66
2022-08-07T09:39:53.642Z,100677.91
2022-08-07T09:42:32.926Z,100683.09
2022-08-07T09:47:49.623Z,100672.03
2022-08-07T09:48:50.265Z,100692.94
2022-08-07T09:52:16.435Z,100682.19
2022-08-07T09:54:48.241Z,100685.38
2022-08-07T09:57:30.025Z,100669.28
2022-08-07T10:00:18.847Z,100673.31
2022-08-07T10:03:08.150Z,100659.09
2022-08-07T10:06:05.496Z,100675.88
2022-08-07T10:08:57.649Z,100670.06
2022-08-07T10:12:01.365Z,100653.78
2022-08-07T10:15:00.444Z,100677.59
2022-08-07T10:18:03.006Z,100660.13
2022-08-07T10:21:00.749Z,100666.12
2022-08-07T10:24:06.585Z,100654.37
2022-08-07T10:27:00.478Z,100651.59
2022-08-07T10:30:06.558Z,100676.34
2022-08-07T10:32:59.884Z,100652.09
2022-08-07T10:35:56.534Z,100664.78
2022-08-07T10:38:47.929Z,100642.12
2022-08-07T10:41:47.127Z,100643.69
2022-08-07T10:44:37.675Z,100628.47
2022-08-07T10:47:19.440Z,100634.41
2022-08-07T10:50:33.286Z,100632.97
2022-08-07T10:53:10.480Z,100624.03
2022-08-07T10:56:03.281Z,100611.03
2022-08-07T10:58:59.601Z,100612.63
2022-08-07T11:02:04.701Z,100600.56
2022-08-07T11:04:57.625Z,100603.47
2022-08-07T11:07:58.582Z,100587.88
2022-08-07T11:10:57.957Z,100606.31
2022-08-07T11:14:44.578Z,100609.41
2022-08-07T11:16:30.502Z,100605.06
2022-08-07T11:19:11.974Z,100603.84
2022-08-07T11:22:00.215Z,100593.03
2022-08-07T11:24:51.875Z,100592.25
2022-08-07T11:28:01.300Z,100605.97
2022-08-07T11:30:41.862Z,100588.97
2022-08-07T11:33:58.463Z,100596.41
2022-08-07T11:36:49.909Z,100588.38
2022-08-07T11:39:59.361Z,100575.28
2022-08-07T11:42:41.808Z,100587.38
2022-08-07T11:45:35.362Z,100578.72
2022-08-07T11:48:29.037Z,100579.28
2022-08-07T11:51:44.726Z,100566.81
2022-08-07T11:54:33.708Z,100561.19
2022-08-07T11:57:20.648Z,100565.47
2022-08-07T12:00:28.463Z,100567.84
2022-08-07T12:03:45.298Z,100559.00
2022-08-07T12:06:37.134Z,100548.31
2022-08-07T12:09:23.285Z,100552.47
2022-08-07T12:12:12.557Z,100548.03
2022-08-07T12:14:55.528Z,100546.06
2022-08-07T12:18:03.077Z,100535.87
2022-08-07T12:20:52.810Z,100510.69
2022-08-07T12:24:07.102Z,100530.91
2022-08-07T12:26:49.587Z,100523.44
2022-08-07T12:29:40.179Z,100545.94
2022-08-07T12:32:18.225Z,100546.03
2022-08-07T12:34:49.353Z,100530.44
2022-08-07T12:37:28.317Z,100512.22
2022-08-07T12:40:30.023Z,100497.47
2022-08-07T12:43:03.359Z,100523.59
2022-08-07T12:46:16.047Z,100525.81
2022-08-07T12:48:55.578Z,100511.25
2022-08-07T12:51:33.428Z,100508.50
2022-08-07T12:54:41.160Z,100496.62
2022-08-07T12:57:09.982Z,100505.59
2022-08-07T12:59:54.483Z,100507.13
2022-08-07T13:02:49.774Z,100504.87
2022-08-07T13:06:03.355Z,100512.94
2022-08-07T13:08:55.518Z,100513.19
2022-08-07T13:12:03.082Z,100520.25
2022-08-07T13:14:55.415Z,100519.88
2022-08-07T13:17:40.600Z,100514.28
2022-08-07T13:20:51.017Z,100509.03
2022-08-07T13:24:01.138Z,100511.22
2022-08-07T13:26:46.597Z,100498.69
2022-08-07T13:29:21.145Z,100513.97
2022-08-07T13:31:57.406Z,100486.97
2022-08-07T13:34:37.907Z,100498.88
2022-08-07T13:37:20.136Z,100489.31
2022-08-07T13:40:35.265Z,100486.44
2022-08-07T13:43:00.164Z,100493.16
2022-08-07T13:46:10.906Z,100491.47
2022-08-07T13:48:27.877Z,100483.28
2022-08-07T13:51:20.496Z,100481.44
2022-08-07T13:54:01.807Z,100491.25
2022-08-07T13:56:35.698Z,100483.72
2022-08-07T13:59:12.727Z,100473.66
2022-08-07T14:02:19.570Z,100472.50
2022-08-07T14:05:00.729Z,100477.91
2022-08-07T14:07:30.637Z,100477.75
2022-08-07T14:10:16.448Z,100481.56
2022-08-07T14:12:54.815Z,100486.09
2022-08-07T14:15:39.421Z,100482.78
2022-08-07T14:18:28.768Z,100465.38
2022-08-07T14:22:03.171Z,100467.22
2022-08-07T14:24:25.536Z,100469.50
2022-08-07T14:26:56.102Z,100468.91
2022-08-07T14:30:05.824Z,100460.34
2022-08-07T14:32:26.884Z,100456.94
2022-08-07T14:34:55.360Z,100458.63
2022-08-07T14:37:32.934Z,100466.09
2022-08-07T14:40:16.616Z,100464.28
2022-08-07T14:43:55.645Z,100462.06
2022-08-07T14:45:49.659Z,100471.06
2022-08-07T14:48:20.487Z,100466.78
2022-08-07T14:50:50.937Z,100452.72
2022-08-07T14:54:06.613Z,100467.19
2022-08-07T14:56:13.049Z,100472.59
2022-08-07T14:58:45.109Z,100462.91
2022-08-07T15:01:21.624Z,100460.63
2022-08-07T15:03:52.349Z,100459.41
2022-08-07T15:06:25.883Z,100453.38
2022-08-07T15:08:54.861Z,100441.63
2022-08-07T15:14:57.927Z,100437.16
2022-08-07T15:17:32.703Z,100450.53
2022-08-07T15:23:20.285Z,100456.16
2022-08-07T15:25:52.288Z,100451.84
2022-08-07T15:28:35.117Z,100451.53
2022-08-07T15:31:10.554Z,100440.84
2022-08-07T15:37:04.145Z,100431.66
2022-08-07T15:39:16.083Z,100431.22
2022-08-07T15:42:48.248Z,100440.41
2022-08-07T15:45:24.958Z,100418.94
2022-08-07T15:48:30.381Z,100438.91
2022-08-07T15:51:08.428Z,100431.94
2022-08-07T15:53:52.918Z,100435.22
2022-08-07T15:56:24.958Z,100432.84
2022-08-07T15:58:59.219Z,100441.63
2022-08-07T16:01:38.636Z,100426.44
2022-08-07T16:04:14.730Z,100422.09
2022-08-07T16:06:54.248Z,100436.91
2022-08-07T16:09:42.289Z,100440.34
2022-08-07T16:12:12.488Z,100424.56
2022-08-07T16:15:04.024Z,100439.22
2022-08-07T16:18:01.946Z,100428.59
2022-08-07T16:21:42.988Z,100432.06
2022-08-07T16:23:59.357Z,100432.53
2022-08-07T16:26:31.143Z,100441.94
2022-08-07T16:30:06.926Z,100446.59
2022-08-07T16:32:00.809Z,100405.25
2022-08-07T16:34:53.063Z,100436.38
2022-08-07T16:38:05.786Z,100443.44
2022-08-07T16:40:30.748Z,100446.25
2022-08-07T16:43:11.638Z,100448.31
2022-08-07T16:50:29.368Z,100450.91
2022-08-07T16:52:35.401Z,100452.47
2022-08-07T16:55:47.031Z,100448.41
2022-08-07T16:58:23.527Z,100447.19
2022-08-07T17:01:01.045Z,100458.22
2022-08-07T17:04:00.082Z,100464.66
2022-08-07T17:07:03.010Z,100472.03
2022-08-07T17:10:06.724Z,100473.31
2022-08-07T17:12:53.030Z,100469.50
2022-08-07T17:15:44.289Z,100466.72
2022-08-07T17:18:51.785Z,100466.09
2022-08-07T17:21:27.447Z,100468.84
2022-08-07T17:24:29.478Z,100469.03
2022-08-07T17:27:36.630Z,100469.94
2022-08-07T17:30:20.596Z,100464.84
2022-08-07T17:34:08.496Z,100467.34
2022-08-07T17:36:58.387Z,100470.34
2022-08-07T17:39:57.809Z,100471.19
2022-08-07T17:42:59.648Z,100472.03
2022-08-07T17:45:38.211Z,100475.84
2022-08-07T17:48:31.061Z,100481.78
2022-08-07T17:51:01.693Z,100480.31
2022-08-07T17:54:01.516Z,100482.41
2022-08-07T17:56:35.215Z,100492.81
2022-08-07T17:59:22.750Z,100494.09
2022-08-07T18:02:09.317Z,100497.69
2022-08-07T18:04:45.489Z,100497.03
2022-08-07T18:07:20.081Z,100505.31
2022-08-07T18:10:05.945Z,100504.03
2022-08-07T18:12:53.311Z,100514.00
2022-08-07T18:15:32.540Z,100524.59
2022-08-07T18:19:02.627Z,100537.31
2022-08-07T18:21:37.133Z,100537.69
2022-08-07T18:24:34.689Z,100550.41
2022-08-07T18:27:21.771Z,100552.91
2022-08-07T18:30:05.652Z,100548.44
2022-08-07T18:33:10.381Z,100548.22
2022-08-07T18:36:06.021Z,100561.75
2022-08-07T18:38:56.988Z,100565.75
2022-08-07T18:41:46.629Z,100570.84
2022-08-07T18:45:40.093Z,100565.09
2022-08-07T18:48:00.795Z,100567.41
2022-08-07T18:50:47.158Z,100566.97
2022-08-07T18:53:39.259Z,100577.31
2022-08-07T18:56:14.699Z,100571.38
2022-08-07T18:59:06.119Z,100584.06
2022-08-07T19:02:19.029Z,100584.84
2022-08-07T19:04:57.809Z,100584.59
2022-08-07T19:07:58.865Z,100589.00
2022-08-07T19:10:51.314Z,100599.53
2022-08-07T19:13:37.898Z,100606.69
2022-08-07T19:17:05.513Z,100608.69
2022-08-07T19:19:53.422Z,100608.28
2022-08-07T19:22:30.765Z,100605.63
2022-08-07T19:24:58.646Z,100607.28
2022-08-07T19:30:53.876Z,100606.69
2022-08-07T19:30:58.703Z,100605.00
2022-08-07T19:33:15.631Z,100595.41
2022-08-07T19:35:50.377Z,100603.44
2022-08-07T19:38:19.153Z,100604.22
2022-08-07T19:40:51.316Z,100614.09
2022-08-07T19:43:44.506Z,100606.91
2022-08-07T19:46:15.741Z,100610.37
2022-08-07T19:48:53.692Z,100618.94
2022-08-07T19:51:52.863Z,100613.53
2022-08-07T19:54:43.882Z,100624.44
2022-08-07T19:58:02.674Z,100618.88
2022-08-07T19:59:58.624Z,100627.28
2022-08-07T20:02:40.282Z,100618.50
2022-08-07T20:05:27.926Z,100638.94
2022-08-07T20:08:01.094Z,100640.44
2022-08-07T20:10:55.486Z,100639.31
2022-08-07T20:13:31.975Z,100649.59
2022-08-07T20:16:01.286Z,100658.56
2022-08-07T20:18:32.894Z,100658.94
2022-08-07T20:21:21.045Z,100656.94
2022-08-07T20:23:54.116Z,100667.63
2022-08-07T20:26:32.468Z,100669.03
2022-08-07T20:29:46.643Z,100669.75
2022-08-07T20:31:58.044Z,100673.06
2022-08-07T20:34:49.459Z,100681.19
2022-08-07T20:37:15.213Z,100672.91
2022-08-07T20:40:04.200Z,100686.66
2022-08-07T20:42:30.611Z,100690.78
2022-08-07T20:45:01.104Z,100699.53
2022-08-07T20:47:55.635Z,100691.72
2022-08-07T20:50:20.812Z,100693.19
2022-08-07T20:52:51.266Z,100695.03
2022-08-07T20:55:23.563Z,100692.62
2022-08-07T20:58:02.283Z,100683.59
2022-08-07T21:00:42.980Z,100707.03
2022-08-07T21:03:14.495Z,100715.59
2022-08-07T21:05:55.923Z,100720.75
2022-08-07T21:08:38.079Z,100725.16
2022-08-07T21:11:12.220Z,100732.25
2022-08-07T21:14:16.679Z,100727.47
2022-08-07T21:18:00.460Z,100735.69
2022-08-07T21:20:05.129Z,100745.78
2022-08-07T21:22:38.548Z,100751.28
2022-08-07T21:25:16.193Z,100747.34
2022-08-07T21:28:07.856Z,100754.34
2022-08-07T21:30:50.087Z,100748.53
2022-08-07T21:33:21.646Z,100758.81
2022-08-07T21:36:32.178Z,100763.56
2022-08-07T21:39:46.469Z,100770.91
2022-08-07T21:42:48.420Z,100768.81
2022-08-07T21:46:07.512Z,100765.91
2022-08-07T21:48:32.101Z,100771.56
2022-08-07T21:51:25.054Z,100781.78
2022-08-07T21:53:59.348Z,100773.41
2022-08-07T21:57:06.302Z,100794.22
2022-08-07T22:00:03.518Z,100797.78
2022-08-07T22:03:05.735Z,100809.41
2022-08-07T22:05:56.755Z,100803.44
2022-08-07T22:08:27.736Z,100809.63
2022-08-07T22:10:59.686Z,100823.53
2022-08-07T22:13:52.759Z,100822.22
2022-08-07T22:16:43.305Z,100828.19
2022-08-07T22:19:23.717Z,100827.34
2022-08-07T22:22:20.796Z,100828.66
2022-08-07T22:25:02.975Z,100838.22
2022-08-07T22:28:20.215Z,100830.19
2022-08-07T22:30:52.746Z,100843.81
2022-08-07T22:33:52.879Z,100839.00
2022-08-07T22:36:38.443Z,100836.25
2022-08-07T22:39:13.350Z,100838.75
2022-08-07T22:42:03.697Z,100833.78
2022-08-07T22:44:57.979Z,100828.47
2022-08-07T22:48:00.956Z,100839.19
2022-08-07T22:50:33.460Z,100835.22
2022-08-07T22:53:19.148Z,100830.66
2022-08-07T22:56:08.702Z,100840.72
2022-08-07T22:59:10.345Z,100845.31
2022-08-07T23:02:19.944Z,100841.03
2022-08-07T23:06:08.625Z,100842.34
2022-08-07T23:08:07.197Z,100837.03
2022-08-07T23:11:13.131Z,100845.06
2022-08-07T23:14:14.999Z,100840.91
2022-08-07T23:17:15.612Z,100841.41
2022-08-07T23:20:51.591Z,100844.75
2022-08-07T23:24:05.317Z,100841.56
2022-08-07T23:26:23.539Z,100836.59
2022-08-07T23:29:04.339Z,100834.75
2022-08-07T23:34:19.767Z,100834.44
2022-08-07T23:35:27.423Z,100838.44
2022-08-07T23:38:19.306Z,100823.78
2022-08-07T23:41:33.712Z,100838.44
2022-08-07T23:44:24.752Z,100832.50
2022-08-07T23:49:52.861Z,100819.50
2022-08-07T23:52:57.920Z,100820.34
2022-08-07T23:55:53.110Z,100823.00
2022-08-07T23:58:38.185Z,100817.22
